Tyro, Virginia
Current Conditions -  °F | °C
As of 11:35 PM on Wednesday 22 Oct 2014 (Local Time) from KW13 Reporting Station
Clear Clear  
Wind Chill: 42°   Ceiling: Unl
Heat Index: 45°   Visibility: 10mi
Dew Point: 39°   Wind: 6mph
Humidity: 80%   Direction: 310°NW
Pressure: 30.05"   Gusts: NA
Location:  37.81°N, 79.02°W
Report Text: KW13 230335Z AUTO 31005KT 10SM CLR 07/04 A3005 RMK AO1 T00740041
Loading
Personal Weather Stations






























Interactive Weather Map
Tropical Storm Tracking
New forecast layout! Learn more

10-Day Weather Forecast

Advertisements
Track Severe Weather on mobile